Terminal Aerodrome Forecast
Issued by NWS

Home | Current Version | Previous Version | Text Only | Print | Product List | Glossary On
Versions: 1 2 3 4 5 6 7 8 9 10 11 12 13 14 15 16 17 18 19 20
365
FTAK31 PAJN 180534
TAFAPG
TAF
PAPG 180534Z 1806/1906 VRB03KT 2SM BR VCSH BKN005 OVC035
     FM181100 12004KT 4SM -RA BR SCT005 OVC015
     FM181600 11007KT 5SM -RA BR SCT010 OVC025
      AMD LTD TO CLD VIS AND WIND 1806/1815=

USA.gov is the U.S. government's official web portal to all federal, state and local government web resources and services.